Time;durP1;ratioP1;P1;durP2;ratioP2;P2;SDS_P1;SDS_P2;PMS_P1;PMS_P2;Temp;Humidity;BMP_temperature;BMP_pressure;BME280_temperature;BME280_humidity;BME280_pressure;Samples;Min_cycle;Max_cycle;Signal;HPM_P1;HPM_P2
2022/08/26 00:00:07;;;;;;;4.70;4.10;;;23.40;52.90;;;26.23;38.62;97322.28;5008961;28;20603;-40
2022/08/26 00:02:39;;;;;;;4.47;4.05;;;23.40;52.90;;;26.21;38.89;97309.97;5009787;28;20045;-40
2022/08/26 00:05:08;;;;;;;5.60;4.13;;;23.40;52.80;;;26.19;39.01;97315.72;5007154;28;20056;-40
2022/08/26 00:07:36;;;;;;;4.38;3.85;;;23.30;52.70;;;26.17;38.87;97315.16;5007475;28;20254;-40
2022/08/26 00:10:05;;;;;;;5.50;4.32;;;23.30;53.20;;;26.12;38.91;97315.16;5040259;28;20060;-41
2022/08/26 00:12:33;;;;;;;4.70;4.30;;;23.30;53.30;;;26.08;39.10;97314.88;5006288;28;20051;-40
2022/08/26 00:15:08;;;;;;;5.25;4.25;;;23.20;53.50;;;26.04;39.35;97313.78;5007456;28;20046;-40
2022/08/26 00:17:36;;;;;;;5.22;4.53;;;23.10;53.70;;;25.98;39.62;97306.69;5007509;28;20058;-40
2022/08/26 00:20:09;;;;;;;4.85;4.40;;;23.00;54.10;;;25.90;39.39;97316.19;5007871;28;20053;-40
2022/08/26 00:22:37;;;;;;;4.75;4.10;;;23.00;54.30;;;25.90;39.72;97321.63;5007757;28;20064;-40
2022/08/26 00:25:07;;;;;;;5.97;4.10;;;23.00;54.30;;;25.84;39.94;97319.97;5007090;28;20542;-40
2022/08/26 00:27:35;;;;;;;4.55;4.05;;;23.00;54.80;;;25.82;39.87;97313.13;5007266;28;20048;-40
2022/08/26 00:30:10;;;;;;;4.60;4.20;;;22.90;54.80;;;25.81;39.98;97315.03;5006744;28;20052;-40
2022/08/26 00:32:39;;;;;;;5.45;4.00;;;22.90;55.00;;;25.81;40.13;97319.69;5008073;28;20068;-40
2022/08/26 00:35:12;;;;;;;4.47;4.07;;;22.90;54.90;;;25.78;39.88;97321.03;5007747;28;20062;-40
2022/08/26 00:37:41;;;;;;;5.07;4.55;;;22.80;55.00;;;25.73;40.24;97319.09;5006117;28;20062;-40
2022/08/26 00:40:15;;;;;;;5.22;4.35;;;22.80;55.10;;;25.72;40.25;97312.00;5007363;28;20060;-40
2022/08/26 00:42:44;;;;;;;6.05;5.00;;;22.80;55.30;;;25.69;40.29;97309.03;5006379;28;20042;-40
2022/08/26 00:45:14;;;;;;;4.78;4.38;;;22.80;55.20;;;25.64;40.43;97309.78;5039269;28;20060;-40
2022/08/26 00:47:58;;;;;;;5.50;5.00;;;22.70;55.40;;;25.64;40.36;97311.72;5040569;28;20049;-40
2022/08/26 00:50:38;;;;;;;5.10;4.60;;;22.80;55.90;;;25.65;40.28;97313.34;5006936;28;20229;-40
2022/08/26 00:53:20;;;;;;;5.18;4.68;;;22.80;55.80;;;25.62;40.34;97309.25;5005696;28;20444;-40
2022/08/26 00:56:07;;;;;;;5.47;4.32;;;22.70;55.70;;;25.59;40.13;97311.69;5007106;28;20052;-40
2022/08/26 00:58:36;;;;;;;5.53;4.70;;;22.60;56.20;;;25.52;40.45;97315.47;5004652;28;20058;-40
2022/08/26 01:01:09;;;;;;;4.75;4.28;;;22.60;55.80;;;25.52;40.42;97309.22;5006267;28;20388;-40
2022/08/26 01:03:38;;;;;;;5.07;4.57;;;22.60;55.70;;;25.50;40.53;97314.09;5006968;28;20072;-40
2022/08/26 01:06:07;;;;;;;6.10;4.60;;;22.60;55.70;;;25.44;40.94;97315.19;5006662;28;20064;-40
2022/08/26 01:08:40;;;;;;;5.13;4.60;;;22.50;56.00;;;25.41;41.05;97307.53;5006887;28;20362;-40
2022/08/26 01:11:08;;;;;;;5.38;4.88;;;22.50;56.10;;;25.37;40.99;97306.41;5006910;28;20042;-40
2022/08/26 01:13:37;;;;;;;5.25;4.75;;;22.50;56.10;;;25.37;40.88;97311.84;5005290;28;20037;-40
2022/08/26 01:16:11;;;;;;;5.25;4.30;;;22.50;56.10;;;25.33;41.10;97308.84;5007318;28;20284;-40
2022/08/26 01:18:41;;;;;;;;;;;22.50;56.20;;;25.50;40.30;97305.94;5008022;28;20058;-40
2022/08/26 01:21:36;;;;;;;5.93;4.65;;;22.50;57.30;;;25.45;40.67;97316.81;5006280;28;19929;-40
2022/08/26 01:24:09;;;;;;;4.80;4.30;;;22.50;56.80;;;25.40;40.72;97314.88;5006837;28;20211;-40
2022/08/26 01:26:42;;;;;;;4.78;4.28;;;22.50;56.00;;;25.40;40.93;97316.78;5006097;28;20058;-40
2022/08/26 01:29:16;;;;;;;5.10;4.28;;;22.50;55.90;;;25.38;40.79;97316.22;5005047;28;20054;-40
2022/08/26 01:31:56;;;;;;;5.53;5.03;;;22.60;56.10;;;25.37;40.76;97315.41;5005581;28;20049;-40
2022/08/26 01:34:29;;;;;;;6.45;5.75;;;22.60;56.00;;;25.38;40.87;97308.88;5022982;28;20226;-40
2022/08/26 01:37:20;;;;;;;5.35;4.85;;;22.60;55.80;;;25.32;40.81;97310.75;5004807;28;20533;-40
2022/08/26 01:39:52;;;;;;;5.82;5.25;;;22.60;56.60;;;25.32;41.03;97308.03;5007140;28;20054;-40
2022/08/26 01:42:24;;;;;;;5.97;5.37;;;22.50;56.10;;;25.35;41.06;97309.41;5006265;28;20336;-40
2022/08/26 01:45:04;;;;;;;6.60;5.10;;;22.50;56.00;;;25.33;40.97;97315.09;5005736;28;20057;-40
2022/08/26 01:47:35;;;;;;;6.00;5.38;;;22.50;56.30;;;25.30;41.07;97314.81;5006867;28;20068;-40
2022/08/26 01:50:12;;;;;;;5.63;5.05;;;22.50;56.40;;;25.27;41.25;97312.63;5025873;28;20367;-40
2022/08/26 01:52:47;;;;;;;5.85;5.35;;;22.40;56.80;;;25.24;41.10;97308.53;5039380;28;20060;-40
2022/08/26 01:55:23;;;;;;;7.60;5.18;;;22.40;56.60;;;25.22;41.22;97316.16;5010356;28;20045;-40
2022/08/26 01:58:07;;;;;;;5.45;4.95;;;22.40;56.60;;;25.18;41.43;97316.91;5008609;28;20057;-40
2022/08/26 02:00:36;;;;;;;6.03;5.43;;;22.30;57.10;;;25.14;41.45;97320.16;5009603;28;20060;-40
2022/08/26 02:03:20;;;;;;;5.78;5.25;;;22.20;57.00;;;25.12;41.59;97321.50;5010148;28;20054;-40
2022/08/26 02:05:57;;;;;;;5.40;4.75;;;22.20;56.90;;;25.14;41.67;97317.44;5010573;28;20076;-40
2022/08/26 02:08:35;;;;;;;5.57;4.97;;;22.30;57.40;;;25.09;41.44;97324.75;5008663;28;20053;-40
2022/08/26 02:11:03;;;;;;;6.43;4.35;;;22.30;56.80;;;25.07;41.52;97318.75;5009059;28;20072;-40
2022/08/26 02:13:40;;;;;;;5.32;4.82;;;22.20;56.90;;;25.06;41.54;97325.25;5010067;28;20060;-40
2022/08/26 02:16:10;;;;;;;5.25;4.75;;;22.20;57.10;;;25.06;41.73;97319.81;5010442;28;20048;-40
2022/08/26 02:18:40;;;;;;;5.22;4.72;;;22.20;56.80;;;25.03;41.76;97325.78;5009234;28;20053;-40
2022/08/26 02:21:11;;;;;;;5.70;5.00;;;22.20;57.10;;;25.01;41.89;97319.78;5008441;28;20416;-40
2022/08/26 02:23:40;;;;;;;5.32;4.53;;;22.20;57.20;;;24.98;42.00;97317.59;5009151;28;20049;-40
2022/08/26 02:26:18;;;;;;;6.38;4.82;;;22.20;57.40;;;25.01;41.77;97317.06;5010178;28;20069;-40
2022/08/26 02:29:12;;;;;;;5.18;4.40;;;22.20;57.70;;;25.01;41.68;97320.63;5009692;28;20042;-40
2022/08/26 02:31:41;;;;;;;5.35;4.85;;;22.20;57.50;;;24.95;41.89;97325.22;5009315;28;20480;-40
2022/08/26 02:34:18;;;;;;;6.40;5.22;;;22.10;57.50;;;24.92;42.07;97316.75;5009890;28;20068;-40
2022/08/26 02:36:48;;;;;;;5.25;4.47;;;22.00;58.10;;;24.88;42.12;97316.44;5008817;28;20064;-40
2022/08/26 02:39:17;;;;;;;6.47;5.57;;;22.00;57.90;;;24.89;42.22;97314.53;5009667;28;20058;-40
2022/08/26 02:41:49;;;;;;;5.38;4.88;;;22.00;57.80;;;24.89;42.25;97317.25;5009351;28;20351;-40
2022/08/26 02:44:18;;;;;;;5.88;5.25;;;22.00;57.90;;;24.89;42.10;97304.47;5009599;28;20352;-40
2022/08/26 02:46:46;;;;;;;6.18;5.45;;;22.10;57.90;;;24.89;42.19;97300.91;5010885;28;20058;-40
2022/08/26 02:49:15;;;;;;;6.10;5.20;;;22.10;57.90;;;24.86;42.40;97305.00;5010130;28;20209;-40
2022/08/26 02:51:44;;;;;;;5.38;4.85;;;22.10;57.80;;;24.88;42.12;97311.00;5008622;28;20053;-40
2022/08/26 02:54:12;;;;;;;5.75;5.03;;;22.10;57.60;;;24.90;42.22;97306.09;5009657;28;20065;-40
2022/08/26 02:56:41;;;;;;;6.45;5.78;;;22.10;57.60;;;24.87;41.95;97305.81;5009103;28;20296;-40
2022/08/26 02:59:14;;;;;;;5.95;5.35;;;22.10;57.50;;;24.86;42.10;97307.72;5009346;28;20054;-40
2022/08/26 03:01:43;;;;;;;6.55;5.63;;;22.10;57.50;;;24.90;42.03;97305.28;5040373;28;20068;-40
2022/08/26 03:04:12;;;;;;;6.35;5.72;;;22.10;57.40;;;24.86;42.15;97302.25;5009734;28;20046;-40
2022/08/26 03:06:41;;;;;;;5.72;4.93;;;22.10;57.60;;;24.87;41.95;97297.63;5008200;28;20053;-40
2022/08/26 03:09:13;;;;;;;7.25;5.75;;;22.10;57.50;;;24.82;42.40;97295.72;5009221;28;20268;-40
2022/08/26 03:11:46;;;;;;;6.43;4.90;;;22.00;57.90;;;24.80;42.27;97294.34;5039783;28;20205;-40
2022/08/26 03:14:14;;;;;;;5.13;4.63;;;22.00;57.80;;;24.80;42.26;97297.06;5008476;28;20060;-40
2022/08/26 03:16:42;;;;;;;5.90;5.30;;;22.00;57.70;;;24.77;42.29;97290.22;5009624;28;20240;-40
2022/08/26 03:19:14;;;;;;;8.43;5.40;;;22.00;57.70;;;24.78;42.35;97291.88;5005874;28;20302;-40
2022/08/26 03:21:44;;;;;;;7.55;5.60;;;22.00;57.90;;;24.74;42.40;97288.84;5007729;28;20255;-40
2022/08/26 03:24:15;;;;;;;5.53;4.85;;;21.90;58.80;;;24.74;42.70;97294.28;5008947;28;20038;-41
2022/08/26 03:26:44;;;;;;;5.75;5.13;;;21.90;58.00;;;24.71;42.37;97291.25;5008359;28;20050;-40
2022/08/26 03:32:08;;;;;;;8.02;5.55;;;21.90;58.30;;;24.67;42.53;97288.25;5007157;28;20080;-40
2022/08/26 03:34:37;;;;;;;5.53;4.80;;;21.80;58.40;;;24.62;42.80;97290.94;5008386;28;20053;-40
2022/08/26 03:37:05;;;;;;;5.20;4.55;;;21.80;58.70;;;24.59;42.85;97294.16;5009155;28;20050;-40
2022/08/26 03:39:33;;;;;;;6.45;5.20;;;21.80;58.70;;;24.54;42.74;97286.81;5009333;28;20052;-40
2022/08/26 03:42:01;;;;;;;5.53;4.65;;;21.70;58.70;;;24.55;42.81;97293.06;5005572;28;20260;-40
2022/08/26 03:44:30;;;;;;;5.30;4.80;;;21.70;58.70;;;24.55;42.80;97287.63;5007287;28;20487;-40
2022/08/26 03:46:59;;;;;;;8.90;5.38;;;21.70;58.70;;;24.52;42.85;97285.41;5007357;28;20052;-40
2022/08/26 03:49:27;;;;;;;5.72;5.22;;;21.70;58.80;;;24.49;42.90;97289.44;5008704;28;20057;-40
2022/08/26 03:51:55;;;;;;;5.43;4.85;;;21.60;58.80;;;24.49;42.94;97291.34;5007169;28;20226;-40
2022/08/26 03:54:23;;;;;;;5.80;5.03;;;21.60;58.90;;;24.48;42.96;97287.78;5010225;28;20108;-40
2022/08/26 03:56:51;;;;;;;9.27;5.20;;;21.70;59.10;;;24.50;42.81;97299.22;5007220;28;20076;-40
2022/08/26 03:59:19;;;;;;;9.57;5.82;;;21.60;58.90;;;24.48;42.97;97295.13;5007623;28;20054;-40
2022/08/26 04:01:47;;;;;;;6.90;4.97;;;21.60;58.90;;;24.45;43.05;97296.47;5007733;28;20058;-40
2022/08/26 04:04:15;;;;;;;6.30;4.63;;;21.60;59.20;;;24.45;43.01;97296.47;5008485;28;20068;-40
2022/08/26 04:06:44;;;;;;;5.18;4.68;;;21.60;59.10;;;24.44;43.13;97292.09;5008891;28;20064;-40
2022/08/26 04:09:18;;;;;;;5.60;5.10;;;21.60;59.20;;;24.42;43.10;97296.97;5007577;28;20054;-40
2022/08/26 04:11:47;;;;;;;5.68;5.13;;;21.60;59.30;;;24.40;43.07;97298.34;5006763;28;20281;-40
2022/08/26 04:14:22;;;;;;;7.57;4.80;;;21.50;59.40;;;24.37;43.16;97297.78;5007234;28;20826;-40
2022/08/26 04:16:51;;;;;;;6.63;6.03;;;21.60;59.60;;;24.35;43.22;97293.69;5006973;28;20058;-40
2022/08/26 04:19:24;;;;;;;7.18;5.78;;;21.50;59.40;;;24.32;43.21;97291.47;5008314;28;20064;-40
2022/08/26 04:21:53;;;;;;;5.68;5.05;;;21.50;59.60;;;24.30;43.39;97299.88;5007211;28;20053;-39
2022/08/26 04:24:24;;;;;;;6.22;5.50;;;21.40;59.60;;;24.29;43.51;97287.38;5007160;28;20049;-40
2022/08/26 04:26:52;;;;;;;5.50;4.80;;;21.40;59.70;;;24.26;43.54;97290.59;5007690;28;20053;-40
2022/08/26 04:29:24;;;;;;;5.68;5.10;;;21.40;59.70;;;24.25;43.33;97293.56;5006388;28;20042;-40
2022/08/26 04:31:56;;;;;;;5.60;4.65;;;21.40;59.80;;;24.23;43.55;97293.81;5007623;28;20060;-40
2022/08/26 04:34:27;;;;;;;6.18;5.20;;;21.40;59.80;;;24.26;43.47;97295.22;5008198;28;20487;-40
2022/08/26 04:36:57;;;;;;;5.40;4.90;;;21.40;60.00;;;24.22;43.69;97294.91;5007852;28;20059;-40
2022/08/26 04:39:25;;;;;;;5.80;5.25;;;21.30;60.20;;;24.20;43.72;97293.53;5006873;28;20061;-40
2022/08/26 04:41:55;;;;;;;5.57;5.05;;;21.30;60.40;;;24.18;43.76;97283.72;5007903;28;20046;-40
2022/08/26 04:44:28;;;;;;;5.97;5.20;;;21.30;60.50;;;24.17;44.08;97289.41;5007817;28;20303;-40
2022/08/26 04:46:57;;;;;;;5.50;5.00;;;21.30;60.70;;;24.15;43.94;97286.13;5007663;28;20247;-40
2022/08/26 04:49:25;;;;;;;6.00;5.40;;;21.30;60.70;;;24.13;43.77;97280.94;5006898;28;20413;-40
2022/08/26 04:51:54;;;;;;;5.30;4.80;;;21.30;60.70;;;24.13;44.04;97293.72;5007161;28;20056;-40
2022/08/26 04:54:22;;;;;;;6.20;5.60;;;21.20;60.80;;;24.07;43.97;97294.75;5008041;28;20232;-40
2022/08/26 04:56:51;;;;;;;5.78;5.18;;;21.10;61.00;;;24.04;44.10;97293.38;5007230;28;20049;-40
2022/08/26 04:59:20;;;;;;;5.88;5.30;;;21.10;61.30;;;24.04;44.14;97290.66;5005148;28;20064;-40
2022/08/26 05:01:51;;;;;;;6.40;5.43;;;21.20;61.30;;;24.03;44.33;97296.34;5008115;28;20083;-40
2022/08/26 05:04:20;;;;;;;5.63;5.13;;;21.20;61.30;;;24.04;44.20;97297.97;5006373;28;20264;-40
2022/08/26 05:06:49;;;;;;;8.15;5.82;;;21.20;61.30;;;24.06;44.49;97304.81;5006603;28;20046;-40
2022/08/26 05:09:18;;;;;;;6.10;5.45;;;21.20;61.30;;;24.07;44.45;97301.00;5037256;28;20068;-40
2022/08/26 05:11:46;;;;;;;5.85;5.15;;;21.30;61.20;;;24.08;44.20;97302.66;5006884;28;20057;-40
2022/08/26 05:14:21;;;;;;;16.45;5.57;;;21.30;60.90;;;24.11;44.33;97298.59;5007952;28;20050;-40
2022/08/26 05:16:50;;;;;;;6.07;5.47;;;21.30;61.40;;;24.11;44.20;97306.75;5007351;28;20054;-40
2022/08/26 05:19:19;;;;;;;6.75;5.63;;;21.30;61.10;;;24.11;44.53;97309.47;5007345;28;20062;-40
2022/08/26 05:21:48;;;;;;;6.65;5.90;;;21.30;61.20;;;24.13;44.21;97305.41;5006388;28;20356;-40
2022/08/26 05:24:16;;;;;;;7.85;5.47;;;21.30;61.20;;;24.15;44.29;97308.69;5010971;28;20053;-39
2022/08/26 05:26:46;;;;;;;7.30;6.45;;;21.40;60.80;;;24.17;44.42;97308.44;5012388;28;20050;-40
2022/08/26 05:29:15;;;;;;;7.28;6.00;;;21.40;60.80;;;24.18;44.17;97305.47;5010062;28;20045;-40
2022/08/26 05:31:43;;;;;;;6.53;5.80;;;21.40;60.90;;;24.17;44.38;97308.44;5010116;28;20268;-40
2022/08/26 05:34:12;;;;;;;6.97;6.28;;;21.50;60.60;;;24.20;44.14;97316.09;5011705;28;20049;-39
2022/08/26 05:36:40;;;;;;;8.98;6.15;;;21.50;60.60;;;24.21;44.10;97306.84;5010215;28;20046;-40
2022/08/26 05:39:09;;;;;;;9.13;5.82;;;21.50;60.70;;;24.22;44.32;97316.66;5009561;28;20072;-40
2022/08/26 05:41:40;;;;;;;11.00;5.63;;;21.50;60.60;;;24.21;44.57;97312.28;5010540;28;20383;-40
2022/08/26 05:44:11;;;;;;;6.90;6.22;;;21.40;61.20;;;24.24;44.48;97317.22;5009106;28;20053;-39
2022/08/26 05:46:42;;;;;;;6.72;5.57;;;21.40;61.40;;;24.25;44.55;97318.03;5010734;28;20041;-40
2022/08/26 05:49:13;;;;;;;6.90;5.15;;;21.50;61.50;;;24.25;44.65;97318.03;5009210;28;20041;-40
2022/08/26 05:51:45;;;;;;;6.40;5.68;;;21.50;61.80;;;24.24;44.84;97317.22;5010006;28;20054;-40
2022/08/26 05:54:15;;;;;;;6.72;5.97;;;21.40;62.00;;;24.22;44.67;97330.25;5011446;28;20374;-40
2022/08/26 05:56:52;;;;;;;6.47;5.22;;;21.40;62.20;;;24.22;44.96;97332.16;5010530;28;20344;-40
2022/08/26 05:59:20;;;;;;;6.43;5.82;;;21.40;62.20;;;24.25;44.92;97326.19;5010422;28;20054;-40
2022/08/26 06:01:53;;;;;;;7.20;6.00;;;21.40;62.00;;;24.25;44.90;97337.09;5010492;28;20049;-39
2022/08/26 06:04:24;;;;;;;6.30;5.70;;;21.50;62.10;;;24.27;44.96;97343.94;5009469;28;20076;-40
2022/08/26 06:06:59;;;;;;;6.97;6.28;;;21.50;62.00;;;24.27;44.82;97346.66;5009265;28;20060;-40
2022/08/26 06:09:28;;;;;;;8.02;6.43;;;21.50;61.90;;;24.25;44.82;97342.53;5024694;28;20060;-40
2022/08/26 06:11:57;;;;;;;7.70;6.88;;;21.50;62.20;;;24.21;44.93;97344.94;5010369;28;20060;-40
2022/08/26 06:14:25;;;;;;;10.07;7.07;;;21.40;62.20;;;24.18;44.91;97338.13;5011669;28;20050;-39
2022/08/26 06:16:53;;;;;;;9.43;6.20;;;21.30;62.60;;;24.15;45.06;97346.78;5041142;28;20053;-39
2022/08/26 06:19:22;;;;;;;8.30;6.40;;;21.30;63.00;;;24.14;45.07;97347.06;5009159;28;20064;-40
2022/08/26 06:21:51;;;;;;;7.93;5.88;;;21.30;62.70;;;24.17;45.14;97346.53;5010362;28;20067;-40
2022/08/26 06:27:12;;;;;;;6.18;5.57;;;21.40;62.20;;;24.25;44.68;97350.69;5009048;28;20052;-40
2022/08/26 06:29:42;;;;;;;7.40;6.07;;;21.40;61.90;;;24.28;44.69;97350.19;5010268;28;20052;-40
2022/08/26 06:32:11;;;;;;;6.13;5.53;;;21.50;61.80;;;24.27;44.59;97353.97;5008439;28;20056;-41
2022/08/26 06:34:39;;;;;;;7.03;6.32;;;21.50;61.60;;;24.21;44.63;97344.94;5009019;28;20049;-40
2022/08/26 06:37:08;;;;;;;6.20;5.10;;;21.40;61.60;;;24.17;44.68;97350.09;5009649;28;20052;-40
2022/08/26 06:39:36;;;;;;;6.68;6.00;;;21.40;61.90;;;24.20;44.88;97353.38;5008651;28;20374;-40
2022/08/26 06:42:08;;;;;;;6.63;5.22;;;21.40;61.90;;;24.26;44.86;97357.78;5009677;28;20054;-40
2022/08/26 06:44:37;;;;;;;7.03;5.03;;;21.50;62.00;;;24.31;44.82;97349.66;5006552;28;20049;-40
2022/08/26 06:47:07;;;;;;;6.45;5.78;;;21.60;61.60;;;24.35;44.73;97351.63;5009432;28;20046;-40
2022/08/26 06:49:36;;;;;;;8.20;5.70;;;21.60;61.30;;;24.39;44.59;97354.66;5008870;28;20057;-40
2022/08/26 06:52:03;;;;;;;5.55;4.97;;;21.60;61.10;;;24.45;44.40;97353.63;5007497;28;20060;-40
2022/08/26 06:54:31;;;;;;;5.72;5.22;;;21.70;61.20;;;24.52;44.50;97358.84;5007912;28;20060;-40
2022/08/26 06:56:59;;;;;;;6.93;5.30;;;21.80;60.70;;;24.55;44.34;97358.34;5009135;28;20254;-41
2022/08/26 06:59:29;;;;;;;6.07;5.22;;;21.90;60.60;;;24.56;44.68;97355.38;5008373;28;20064;-40
2022/08/26 07:01:57;;;;;;;5.78;5.22;;;21.90;60.80;;;24.56;44.70;97355.38;5008959;28;20057;-40
2022/08/26 07:04:26;;;;;;;5.50;4.90;;;21.90;61.00;;;24.64;44.57;97364.97;5009195;28;20271;-40
2022/08/26 07:06:55;;;;;;;7.80;5.20;;;22.00;60.80;;;24.63;44.64;97365.22;5009354;28;20060;-41
2022/08/26 07:09:28;;;;;;;6.50;5.55;;;22.00;61.70;;;24.61;44.59;97362.75;5007413;28;20054;-40
2022/08/26 07:11:56;;;;;;;6.20;5.60;;;22.00;61.00;;;24.63;44.47;97362.50;5008024;28;20049;-41
2022/08/26 07:14:25;;;;;;;6.20;5.60;;;21.90;60.90;;;24.67;44.63;97366.34;5008876;28;20340;-41
2022/08/26 07:16:54;;;;;;;6.38;5.15;;;22.00;61.00;;;24.66;44.57;97365.53;5009465;28;20257;-40
2022/08/26 07:19:29;;;;;;;6.68;5.93;;;22.00;60.70;;;24.72;44.55;97367.22;5008642;28;20346;-40
2022/08/26 07:22:04;;;;;;;6.15;5.50;;;22.00;60.70;;;24.82;44.41;97369.22;5007813;28;20056;-41
2022/08/26 07:24:40;;;;;;;6.70;5.85;;;22.20;60.70;;;24.81;44.46;97378.44;5007795;28;20060;-41
2022/08/26 07:27:13;;;;;;;5.88;5.25;;;22.20;60.70;;;24.76;44.79;97376.50;5008416;28;20170;-41
2022/08/26 07:29:42;;;;;;;7.50;5.70;;;22.20;60.80;;;24.90;44.59;97376.06;5009204;28;20045;-41
2022/08/26 07:32:13;;;;;;;6.97;6.13;;;22.30;60.80;;;24.91;44.77;97373.09;5008020;28;20049;-41
2022/08/26 07:34:41;;;;;;;8.63;5.60;;;22.40;61.00;;;25.02;44.75;97371.25;5008922;28;20045;-41
2022/08/26 07:37:09;;;;;;;7.78;5.60;;;22.50;61.00;;;25.08;44.39;97372.13;5008001;28;20046;-40
2022/08/26 07:39:40;;;;;;;7.93;6.45;;;22.60;60.50;;;25.07;44.72;97370.50;5007560;28;20060;-41
2022/08/26 07:42:13;;;;;;;5.72;5.22;;;22.60;60.40;;;25.14;44.58;97368.34;5007153;28;20042;-40
2022/08/26 07:44:42;;;;;;;9.13;5.95;;;22.70;60.40;;;25.27;44.31;97373.38;5008063;28;20053;-40
2022/08/26 07:47:10;;;;;;;8.38;5.85;;;22.80;59.80;;;25.38;44.12;97374.28;5007035;28;20054;-41
2022/08/26 07:49:56;;;;;;;7.68;5.40;;;22.90;59.30;;;25.49;43.78;97373.25;5008424;28;20057;-40
2022/08/26 07:52:27;;;;;;;8.52;6.75;;;23.00;59.10;;;25.51;43.75;97371.06;5007687;28;20244;-41
2022/08/26 07:54:57;;;;;;;7.28;5.20;;;23.10;58.80;;;25.54;43.63;97365.09;5008947;28;20124;-40
2022/08/26 07:57:27;;;;;;;12.57;7.72;;;23.10;58.90;;;25.65;43.64;97373.28;5007947;28;20060;-40
2022/08/26 07:59:55;;;;;;;12.15;6.68;;;23.20;58.50;;;25.73;43.68;97370.09;5008123;28;20071;-40
2022/08/26 08:02:25;;;;;;;6.60;5.75;;;23.30;58.70;;;25.78;44.03;97366.56;5008784;28;20710;-41
2022/08/26 08:04:54;;;;;;;7.85;6.28;;;23.40;58.80;;;25.79;43.39;97369.03;5007382;28;20045;-40
2022/08/26 08:07:22;;;;;;;10.55;5.57;;;23.40;58.30;;;25.91;43.12;97372.38;5008524;28;20057;-40
2022/08/26 08:10:16;;;;;;;8.43;6.20;;;23.50;58.10;;;26.02;43.06;97380.59;5007507;28;20225;-40
2022/08/26 08:12:45;;;;;;;6.75;6.15;;;23.60;57.90;;;26.09;43.19;97372.97;5007072;28;20052;-40
2022/08/26 08:15:16;;;;;;;8.13;6.50;;;23.70;58.10;;;26.18;42.88;97373.28;5007255;28;20058;-40
2022/08/26 08:17:44;;;;;;;7.10;5.90;;;23.80;57.50;;;26.27;42.92;97364.31;5005837;28;20057;-40
2022/08/26 08:20:13;;;;;;;10.38;6.43;;;23.90;57.20;;;26.38;42.63;97375.22;5008130;28;20054;-40
2022/08/26 08:22:41;;;;;;;9.68;6.50;;;24.00;56.70;;;26.42;42.65;97365.41;5006614;28;20252;-39
2022/08/26 08:25:11;;;;;;;7.85;6.28;;;24.10;57.20;;;26.53;42.45;97378.00;5007211;28;20066;-39
2022/08/26 08:27:41;;;;;;;9.55;5.60;;;24.10;56.90;;;26.59;42.79;97373.38;5006759;28;20152;-40
2022/08/26 08:30:13;;;;;;;10.25;6.93;;;24.30;56.80;;;26.72;42.24;97372.84;5007426;28;20046;-40
2022/08/26 08:32:44;;;;;;;10.07;6.38;;;24.40;56.20;;;26.74;42.40;97372.59;5006600;28;20038;-40
2022/08/26 08:35:16;;;;;;;9.75;6.28;;;24.40;56.30;;;26.82;42.14;97375.59;5008061;28;20056;-41
2022/08/26 08:37:44;;;;;;;10.10;6.50;;;24.50;56.40;;;26.99;42.02;97375.31;5007189;28;20050;-40
2022/08/26 08:40:16;;;;;;;9.57;6.57;;;24.60;55.50;;;26.96;42.05;97377.78;5007469;28;20054;-40
2022/08/26 08:43:02;;;;;;;11.83;6.80;;;24.70;55.60;;;27.07;41.70;97369.28;5005384;28;20356;-40
2022/08/26 08:45:58;;;;;;;14.30;6.97;;;24.70;55.30;;;27.19;41.92;97373.66;5007053;28;20302;-40
2022/08/26 08:48:32;;;;;;;15.50;7.68;;;24.80;55.00;;;27.35;41.34;97371.75;5006215;28;20251;-40
2022/08/26 08:51:21;;;;;;;13.10;7.03;;;25.00;55.40;;;27.32;41.58;97370.41;5006153;28;20072;-40
2022/08/26 08:53:53;;;;;;;7.95;7.20;;;25.00;54.60;;;27.43;41.24;97373.91;5006530;28;20064;-40
2022/08/26 08:56:51;;;;;;;15.05;7.50;;;25.10;54.80;;;27.45;40.94;97380.75;5006652;28;20224;-40
2022/08/26 08:59:32;;;;;;;11.52;7.15;;;25.10;54.70;;;27.45;41.16;97375.28;5006096;28;20072;-40
2022/08/26 09:02:24;;;;;;;12.70;7.45;;;25.10;54.50;;;27.56;41.01;97372.53;5005043;28;20049;-41
2022/08/26 09:05:16;;;;;;;10.23;8.07;;;25.20;54.50;;;27.68;41.09;97373.88;5007234;28;20378;-40
2022/08/26 09:08:00;;;;;;;14.85;8.75;;;25.20;54.60;;;27.73;40.98;97375.75;5006098;28;20049;-41
2022/08/26 09:10:51;;;;;;;11.93;7.97;;;25.20;54.60;;;27.78;40.73;97373.00;5006440;28;20344;-40
2022/08/26 09:13:22;;;;;;;14.27;7.60;;;25.30;54.50;;;27.81;41.09;97374.34;5005481;28;20060;-40
2022/08/26 09:16:23;;;;;;;12.90;8.15;;;25.40;54.50;;;27.92;40.43;97365.03;5007228;28;20054;-40
2022/08/26 09:19:20;;;;;;;16.25;8.15;;;25.50;53.90;;;27.99;40.28;97360.06;5005448;28;20053;-40
2022/08/26 09:21:56;;;;;;;9.77;6.72;;;25.50;54.00;;;28.06;40.51;97365.25;5005769;28;20057;-41
2022/08/26 09:24:26;;;;;;;12.50;7.82;;;25.60;53.80;;;28.08;40.47;97365.78;5039364;28;20054;-40
2022/08/26 09:27:44;;;;;;;11.98;7.68;;;25.60;53.80;;;28.14;40.11;97367.38;5007118;28;20320;-40
2022/08/26 09:30:28;;;;;;;15.07;7.47;;;25.80;53.10;;;28.24;39.98;97372.78;5037297;28;20050;-40
2022/08/26 09:33:07;;;;;;;11.38;7.50;;;25.80;53.30;;;28.33;40.13;97374.97;5006992;28;20064;-40
2022/08/26 09:35:47;;;;;;;14.68;8.48;;;25.90;53.10;;;28.36;40.11;97375.19;5005872;28;20069;-40
2022/08/26 09:38:32;;;;;;;11.50;6.75;;;25.90;52.80;;;28.43;40.25;97362.00;5005301;28;20061;-40
2022/08/26 09:41:07;;;;;;;14.07;7.80;;;26.00;53.00;;;28.52;40.16;97353.22;5006391;28;20054;-40
2022/08/26 09:43:35;;;;;;;17.23;7.57;;;26.10;52.80;;;28.58;39.71;97354.84;5005633;28;20861;-40
2022/08/26 09:46:19;;;;;;;14.20;7.15;;;26.10;53.10;;;28.64;39.74;97356.44;5005086;28;20049;-40
2022/08/26 09:48:47;;;;;;;;;;;26.20;52.40;;;28.85;39.40;97341.47;5006604;28;20050;-41
2022/08/26 09:51:22;;;;;;;15.40;7.97;;;26.20;52.30;;;28.84;39.40;97339.00;5006226;28;19925;-40
2022/08/26 09:53:56;;;;;;;9.70;7.80;;;26.20;52.70;;;28.82;39.39;97328.34;5007261;28;20061;-40
2022/08/26 09:56:32;;;;;;;11.50;6.55;;;26.30;52.20;;;28.86;39.03;97320.38;5006097;28;20052;-40
2022/08/26 09:59:01;;;;;;;12.18;7.97;;;26.40;52.00;;;28.88;38.84;97323.63;5005117;28;20049;-41
2022/08/26 10:01:41;;;;;;;9.77;7.10;;;26.40;51.80;;;28.90;39.19;97320.63;5006356;28;20048;-41
2022/08/26 10:04:23;;;;;;;10.60;7.32;;;26.50;51.40;;;28.97;39.27;97312.88;5021919;28;20058;-40
2022/08/26 10:07:04;;;;;;;9.82;6.63;;;26.60;51.70;;;29.03;38.53;97312.53;5006679;28;20060;-40
2022/08/26 10:09:42;;;;;;;12.15;7.68;;;26.60;51.00;;;29.05;38.75;97309.50;5008507;28;20094;-41
2022/08/26 10:12:20;;;;;;;14.05;9.07;;;26.60;51.00;;;29.06;38.50;97302.91;5024809;28;20056;-41
2022/08/26 10:14:55;;;;;;;12.35;6.47;;;26.60;51.60;;;29.12;38.71;97311.91;5009272;28;20057;-40
2022/08/26 10:17:31;;;;;;;11.43;7.90;;;26.70;51.00;;;29.19;38.92;97309.69;5007156;28;20058;-40
2022/08/26 10:20:14;;;;;;;16.85;8.23;;;26.80;50.90;;;29.25;38.72;97297.53;5009223;28;20064;-41
2022/08/26 10:23:11;;;;;;;13.38;6.97;;;26.90;50.40;;;29.31;38.64;97303.78;5008677;28;20058;-40
2022/08/26 10:26:15;;;;;;;11.75;6.90;;;26.90;50.70;;;29.33;38.25;97294.16;5010404;28;20046;-40
2022/08/26 10:29:06;;;;;;;12.05;8.43;;;26.90;50.10;;;29.35;37.87;97289.22;5008298;28;20041;-40
2022/08/26 10:31:47;;;;;;;13.00;7.53;;;26.90;50.40;;;29.33;38.12;97294.16;4999300;28;20056;-40
2022/08/26 10:34:18;;;;;;;13.10;7.28;;;26.90;50.10;;;29.33;38.13;97285.94;5009542;28;20064;-41
2022/08/26 10:37:03;;;;;;;17.23;9.30;;;26.90;50.10;;;29.35;37.96;97282.91;5009590;28;20367;-40
2022/08/26 10:39:49;;;;;;;19.48;8.27;;;26.90;50.00;;;29.27;37.75;97280.81;5008505;28;20050;-41
2022/08/26 10:43:07;;;;;;;12.90;7.38;;;27.00;50.20;;;29.40;38.15;97286.41;5009288;28;20049;-40
2022/08/26 10:45:46;;;;;;;12.03;6.67;;;27.10;50.10;;;29.51;37.94;97286.28;4988161;28;20061;-40
2022/08/26 10:48:51;;;;;;;14.70;7.72;;;27.10;50.20;;;29.56;38.22;97286.22;5007732;28;20061;-40